<?xml version="1.0" encoding="utf-8"?>
<gpx xmlns:xsi="http://www.w3.org/2001/XMLSchema-instance" xmlns:xsd="http://www.w3.org/2001/XMLSchema" xsi:schemaLocation="http://www.topografix.com/GPX/1/0 http://www.topografix.com/GPX/1/0/gpx.xsd" version="1.0" creator="QuoVadis 7.0.1.27" xmlns="http://www.topografix.com/GPX/1/0">
  <name>qv7</name>
  <trk>
    <name>Rundweg-Hullerner Stausee</name>
    <trkseg>
      <trkpt lat="51.7442707435746" lon="7.26248716555335">
        <ele>54.001</ele>
        <time>2013-12-03T17:14:05.84Z</time>
      </trkpt>
      <trkpt lat="51.74473694404" lon="7.26243349976344">
        <ele>55.001</ele>
        <time>2013-12-03T17:14:06.881Z</time>
        <speed>50</speed>
      </trkpt>
      <trkpt lat="51.744566788184" lon="7.26294159929783">
        <ele>53.001</ele>
        <time>2013-12-03T17:14:07.677Z</time>
        <speed>50</speed>
      </trkpt>
      <trkpt lat="51.744889350309" lon="7.26371743160483">
        <ele>54.001</ele>
        <time>2013-12-03T17:14:08.965Z</time>
        <speed>50</speed>
      </trkpt>
      <trkpt lat="51.7451015433537" lon="7.26453328159822">
        <ele>54.001</ele>
        <time>2013-12-03T17:14:10.185Z</time>
        <speed>50</speed>
      </trkpt>
      <trkpt lat="51.7451556296239" lon="7.26517617309831">
        <ele>54.001</ele>
        <time>2013-12-03T17:14:11.079Z</time>
        <speed>50</speed>
      </trkpt>
      <trkpt lat="51.7452549843345" lon="7.26588888516423">
        <ele>54.001</ele>
        <time>2013-12-03T17:14:12.086Z</time>
        <speed>50</speed>
      </trkpt>
      <trkpt lat="51.7452629090267" lon="7.26642593547759">
        <ele>54.001</ele>
        <time>2013-12-03T17:14:12.827Z</time>
        <speed>50</speed>
      </trkpt>
      <trkpt lat="51.7451632856192" lon="7.26721796118986">
        <ele>53.001</ele>
        <time>2013-12-03T17:14:13.941Z</time>
        <speed>50</speed>
      </trkpt>
      <trkpt lat="51.7451496251526" lon="7.26779175412432">
        <ele>53.001</ele>
        <time>2013-12-03T17:14:14.733Z</time>
        <speed>50</speed>
      </trkpt>
      <trkpt lat="51.7451108636382" lon="7.2681873422135">
        <ele>53.001</ele>
        <time>2013-12-03T17:14:15.285Z</time>
        <speed>50</speed>
      </trkpt>
      <trkpt lat="51.744705054957" lon="7.2693134749273">
        <ele>52.001</ele>
        <time>2013-12-03T17:14:17.081Z</time>
        <speed>50</speed>
      </trkpt>
      <trkpt lat="51.7440857064415" lon="7.27105677574317">
        <ele>51.001</ele>
        <time>2013-12-03T17:14:19.852Z</time>
        <speed>50</speed>
      </trkpt>
      <trkpt lat="51.7415685219663" lon="7.27229919082632">
        <ele>47.001</ele>
        <time>2013-12-03T17:14:25.712Z</time>
        <speed>50</speed>
      </trkpt>
      <trkpt lat="51.7409585562918" lon="7.27619146204707">
        <ele>47.001</ele>
        <time>2013-12-03T17:14:31.247Z</time>
        <speed>50</speed>
      </trkpt>
      <trkpt lat="51.7412678469696" lon="7.2775768248027">
        <ele>47.001</ele>
        <time>2013-12-03T17:14:33.277Z</time>
        <speed>50</speed>
      </trkpt>
      <trkpt lat="51.7413821627504" lon="7.27929200036424">
        <ele>47.001</ele>
        <time>2013-12-03T17:14:35.655Z</time>
        <speed>50</speed>
      </trkpt>
      <trkpt lat="51.741448742969" lon="7.28079407322873">
        <ele>46.001</ele>
        <time>2013-12-03T17:14:37.731Z</time>
        <speed>50</speed>
      </trkpt>
      <trkpt lat="51.741459342033" lon="7.28151861202179">
        <ele>46.001</ele>
        <time>2013-12-03T17:14:38.73Z</time>
        <speed>50</speed>
      </trkpt>
      <trkpt lat="51.741785273338" lon="7.2825093190053">
        <ele>46.001</ele>
        <time>2013-12-03T17:14:40.277Z</time>
        <speed>50</speed>
      </trkpt>
      <trkpt lat="51.7422871949441" lon="7.28338576414445">
        <ele>47.001</ele>
        <time>2013-12-03T17:14:41.923Z</time>
        <speed>50</speed>
      </trkpt>
      <trkpt lat="51.7428352504688" lon="7.28436822805286">
        <ele>48.001</ele>
        <time>2013-12-03T17:14:43.746Z</time>
        <speed>50</speed>
      </trkpt>
      <trkpt lat="51.7431590689374" lon="7.28521582487123">
        <ele>48.001</ele>
        <time>2013-12-03T17:14:45.119Z</time>
        <speed>50</speed>
      </trkpt>
      <trkpt lat="51.7434167244249" lon="7.28610157150056">
        <ele>48.001</ele>
        <time>2013-12-03T17:14:46.468Z</time>
        <speed>50</speed>
      </trkpt>
      <trkpt lat="51.7435857627852" lon="7.28702673836833">
        <ele>49.001</ele>
        <time>2013-12-03T17:14:47.798Z</time>
        <speed>50</speed>
      </trkpt>
      <trkpt lat="51.7436917660367" lon="7.28820486255416">
        <ele>48.001</ele>
        <time>2013-12-03T17:14:49.439Z</time>
        <speed>50</speed>
      </trkpt>
      <trkpt lat="51.7437760019689" lon="7.28938395581233">
        <ele>48.001</ele>
        <time>2013-12-03T17:14:51.075Z</time>
        <speed>50</speed>
      </trkpt>
      <trkpt lat="51.7437011064266" lon="7.29038990242442">
        <ele>48.001</ele>
        <time>2013-12-03T17:14:52.472Z</time>
        <speed>50</speed>
      </trkpt>
      <trkpt lat="51.743294393869" lon="7.29144428218692">
        <ele>48.001</ele>
        <time>2013-12-03T17:14:54.184Z</time>
        <speed>50</speed>
      </trkpt>
      <trkpt lat="51.7426686406893" lon="7.29279337937358">
        <ele>47.001</ele>
        <time>2013-12-03T17:14:56.508Z</time>
        <speed>50</speed>
      </trkpt>
      <trkpt lat="51.7420929871169" lon="7.29449871399002">
        <ele>47.001</ele>
        <time>2013-12-03T17:14:59.186Z</time>
        <speed>50</speed>
      </trkpt>
      <trkpt lat="51.7416700085676" lon="7.29598347812675">
        <ele>47.001</ele>
        <time>2013-12-03T17:15:01.439Z</time>
        <speed>50</speed>
      </trkpt>
      <trkpt lat="51.7418527702511" lon="7.29633476135907">
        <ele>47.001</ele>
        <time>2013-12-03T17:15:02.072Z</time>
        <speed>50</speed>
      </trkpt>
      <trkpt lat="51.742165604999" lon="7.29643059628426">
        <ele>48.001</ele>
        <time>2013-12-03T17:15:02.781Z</time>
        <speed>50</speed>
      </trkpt>
      <trkpt lat="51.7424359468731" lon="7.29667126872942">
        <ele>48.001</ele>
        <time>2013-12-03T17:15:03.468Z</time>
        <speed>50</speed>
      </trkpt>
      <trkpt lat="51.742645835712" lon="7.29734393282704">
        <ele>48.001</ele>
        <time>2013-12-03T17:15:04.506Z</time>
        <speed>50</speed>
      </trkpt>
      <trkpt lat="51.7427227199996" lon="7.29802174356412">
        <ele>49.001</ele>
        <time>2013-12-03T17:15:05.456Z</time>
        <speed>50</speed>
      </trkpt>
      <trkpt lat="51.742711668089" lon="7.29881032464613">
        <ele>49.001</ele>
        <time>2013-12-03T17:15:06.543Z</time>
        <speed>50</speed>
      </trkpt>
      <trkpt lat="51.7426348023133" lon="7.29963715085171">
        <ele>49.001</ele>
        <time>2013-12-03T17:15:07.696Z</time>
        <speed>50</speed>
      </trkpt>
      <trkpt lat="51.7427724390401" lon="7.29995239622459">
        <ele>49.001</ele>
        <time>2013-12-03T17:15:08.228Z</time>
        <speed>50</speed>
      </trkpt>
      <trkpt lat="51.7434772033993" lon="7.3010005974522">
        <ele>50.001</ele>
        <time>2013-12-03T17:15:10.361Z</time>
        <speed>50</speed>
      </trkpt>
      <trkpt lat="51.7438444357591" lon="7.30177500357808">
        <ele>51.001</ele>
        <time>2013-12-03T17:15:11.706Z</time>
        <speed>50</speed>
      </trkpt>
      <trkpt lat="51.7440537811986" lon="7.30241209814312">
        <ele>51.001</ele>
        <time>2013-12-03T17:15:12.7Z</time>
        <speed>50</speed>
      </trkpt>
      <trkpt lat="51.744266225441" lon="7.30326401822568">
        <ele>51.001</ele>
        <time>2013-12-03T17:15:13.966Z</time>
        <speed>50</speed>
      </trkpt>
      <trkpt lat="51.7446341243466" lon="7.30410998246702">
        <ele>52.001</ele>
        <time>2013-12-03T17:15:15.391Z</time>
        <speed>50</speed>
      </trkpt>
      <trkpt lat="51.7449039349094" lon="7.30431495722834">
        <ele>51.001</ele>
        <time>2013-12-03T17:15:16.055Z</time>
        <speed>50</speed>
      </trkpt>
      <trkpt lat="51.7451948178399" lon="7.30444731004926">
        <ele>51.001</ele>
        <time>2013-12-03T17:15:16.728Z</time>
        <speed>50</speed>
      </trkpt>
      <trkpt lat="51.7461105568419" lon="7.30315912701539">
        <ele>52.001</ele>
        <time>2013-12-03T17:15:19.432Z</time>
        <speed>50</speed>
      </trkpt>
      <trkpt lat="51.7462211453291" lon="7.3015783882466">
        <ele>53.001</ele>
        <time>2013-12-03T17:15:21.625Z</time>
        <speed>50</speed>
      </trkpt>
      <trkpt lat="51.7474403354486" lon="7.30131784312827">
        <ele>54.001</ele>
        <time>2013-12-03T17:15:24.363Z</time>
        <speed>50</speed>
      </trkpt>
      <trkpt lat="51.7479616735039" lon="7.30043832749521">
        <ele>55.001</ele>
        <time>2013-12-03T17:15:26.041Z</time>
        <speed>50</speed>
      </trkpt>
      <trkpt lat="51.7486758966667" lon="7.29600447480264">
        <ele>55.001</ele>
        <time>2013-12-03T17:15:32.356Z</time>
        <speed>50</speed>
      </trkpt>
      <trkpt lat="51.7489188712445" lon="7.29438286076767">
        <ele>54.001</ele>
        <time>2013-12-03T17:15:34.656Z</time>
        <speed>50</speed>
      </trkpt>
      <trkpt lat="51.7488395492947" lon="7.2934902388618">
        <ele>54.001</ele>
        <time>2013-12-03T17:15:35.899Z</time>
        <speed>50</speed>
      </trkpt>
      <trkpt lat="51.7486192287031" lon="7.29210118315638">
        <ele>54.001</ele>
        <time>2013-12-03T17:15:37.875Z</time>
        <speed>50</speed>
      </trkpt>
      <trkpt lat="51.7481545152697" lon="7.2892165437896">
        <ele>54.001</ele>
        <time>2013-12-03T17:15:41.984Z</time>
        <speed>50</speed>
      </trkpt>
      <trkpt lat="51.7480962168654" lon="7.28825131055772">
        <ele>54.001</ele>
        <time>2013-12-03T17:15:43.321Z</time>
        <speed>50</speed>
      </trkpt>
      <trkpt lat="51.7483667675744" lon="7.28698712584172">
        <ele>54.001</ele>
        <time>2013-12-03T17:15:45.165Z</time>
        <speed>50</speed>
      </trkpt>
      <trkpt lat="51.7486042216797" lon="7.28497168844645">
        <ele>55.001</ele>
        <time>2013-12-03T17:15:47.993Z</time>
        <speed>50</speed>
      </trkpt>
      <trkpt lat="51.7489838426626" lon="7.2820191608367">
        <ele>56.001</ele>
        <time>2013-12-03T17:15:52.15Z</time>
        <speed>50</speed>
      </trkpt>
      <trkpt lat="51.7492131079524" lon="7.277101737352">
        <ele>58.001</ele>
        <time>2013-12-03T17:15:58.947Z</time>
        <speed>50</speed>
      </trkpt>
      <trkpt lat="51.7494477798031" lon="7.2718973925714">
        <ele>60.001</ele>
        <time>2013-12-03T17:16:06.139Z</time>
        <speed>50</speed>
      </trkpt>
      <trkpt lat="51.7494685964333" lon="7.26877937489922">
        <ele>60.001</ele>
        <time>2013-12-03T17:16:10.437Z</time>
        <speed>50</speed>
      </trkpt>
      <trkpt lat="51.7494048519102" lon="7.26745612451588">
        <ele>60.001</ele>
        <time>2013-12-03T17:16:12.266Z</time>
        <speed>50</speed>
      </trkpt>
      <trkpt lat="51.7487585409839" lon="7.26586853121891">
        <ele>60.001</ele>
        <time>2013-12-03T17:16:14.885Z</time>
        <speed>50</speed>
      </trkpt>
      <trkpt lat="51.7478059365122" lon="7.26311033889448">
        <ele>60.001</ele>
        <time>2013-12-03T17:16:19.238Z</time>
        <speed>50</speed>
      </trkpt>
      <trkpt lat="51.7467693988613" lon="7.26218269260407">
        <ele>58.001</ele>
        <time>2013-12-03T17:16:21.876Z</time>
        <speed>50</speed>
      </trkpt>
      <trkpt lat="51.7461624347196" lon="7.26174032038368">
        <ele>57.001</ele>
        <time>2013-12-03T17:16:23.359Z</time>
        <speed>50</speed>
      </trkpt>
      <trkpt lat="51.7458113642742" lon="7.26207621494204">
        <ele>57.001</ele>
        <time>2013-12-03T17:16:24.267Z</time>
        <speed>50</speed>
      </trkpt>
      <trkpt lat="51.7454334190452" lon="7.26209072189972">
        <ele>56.001</ele>
        <time>2013-12-03T17:16:25.109Z</time>
        <speed>50</speed>
      </trkpt>
      <trkpt lat="51.7449040711643" lon="7.26236175583838">
        <ele>55.001</ele>
        <time>2013-12-03T17:16:26.345Z</time>
        <speed>50</speed>
      </trkpt>
    </trkseg>
  </trk>
</gpx>